Inspiration — C6FM5 — position and weather

sailwx.info

Track history (hours):
 
Tides and Currents Weather Stations Pressure Air Temp Water Temp Dewpoint Dewpoint Depression Visibility Wind Speed Wind Dir Waves Ship Positions

Inspiration

Operator: Carnival Cruise Lines

Last reported at 2020-Aug-02 13:30 UTC. Time now 2020-Sep-28 13:04 UTC.
Position N 37°48' E 025°33'.
Warning: this ship's position is 56 days out of date.

Type: Ship. MMSI: 309484000.

Date/timePositionNaut miles runAvg speedWind from/ knotsBaromVisibWave heightAir tempDewpointWater temp
2020-Aug-02 13:30N 37°48' E 025°33'713.7
2020-Aug-02 13:00N 37°41' E 025°35'713.6
2020-Aug-02 12:30N 37°35' E 025°37'2010.0
2020-Aug-02 10:30N 37°19' E 025°21'713.9
2020-Aug-02 10:00N 37°17' E 025°13'  
2020-Jul-31 00:20N 37°54' E 011°43'5113.2
2020-Jul-30 20:30N 38°04' E 010°40'1413.8
2020-Jul-30 19:30N 38°05' E 010°22'30013.3
2020-Jul-29 21:00N 37°59' E 004°01'812.9
2020-Jul-29 20:25N 37°59' E 003°52'4412.8
2020-Jul-29 17:00N 37°57' E 002°57'713.1
2020-Jul-29 16:30N 37°57' E 002°48'1312.9
2020-Jul-29 15:28N 37°53' E 002°32'21813.5
2020-Jul-28 23:21N 36°25' W 001°38'5213.5
2020-Jul-28 19:30N 36°13' W 002°41'3112.6
2020-Jul-28 17:00N 36°10' W 003°20'2511.8
2020-Jul-28 14:55N 36°08' W 003°50'2312.3
2020-Jul-28 13:00N 36°05' W 004°19'1912.6
2020-Jul-28 11:30N 36°03' W 004°42'611.5
2020-Jul-28 11:00N 36°02' W 004°49'612.3
2020-Jul-28 10:31N 36°02' W 004°57'1312.6
2020-Jul-28 09:30N 36°00' W 005°12'5312.7
2020-Jul-28 05:18N 35°52' W 006°17'5514.6
2020-Jul-28 01:31N 35°28' W 007°19'3714.4
2020-Jul-27 22:58N 35°13' W 007°60'5714.3
2020-Jul-27 19:01N 34°49' W 009°02'2313.8
2020-Jul-27 17:19N 34°40' W 009°28'413.3
2020-Jul-27 16:59N 34°38' W 009°33'713.9
2020-Jul-27 16:30N 34°35' W 009°41'713.8
2020-Jul-27 16:00N 34°32' W 009°48'1013.7
2020-Jul-27 15:15N 34°28' W 009°59'4413.7
2020-Jul-27 12:00N 34°09' W 010°48'9414.3
2020-Jul-27 05:26N 33°30' W 012°31'1314.3
2020-Jul-27 04:30N 33°24' W 012°46'14813.8
2020-Jul-26 17:45N 32°22' W 015°26'3013.9
2020-Jul-26 15:33N 32°09' W 015°59'113.9
2020-Jul-26 15:31N 32°09' W 015°60'  
Track history (hours):
 
Tides and Currents Weather Stations Pressure Air Temp Water Temp Dewpoint Dewpoint Depression Visibility Wind Speed Wind Dir Waves Ship Positions

Inspiration

Operator: Carnival Cruise Lines

Last reported at 2020-Aug-02 13:30 UTC. Time now 2020-Sep-28 13:04 UTC.
Position N 37°48' E 025°33'.
Warning: this ship's position is 56 days out of date.

Type: Ship. MMSI: 309484000.

Date/timePositionNaut miles runAvg speedWind from/ knotsBaromVisibWave heightAir tempDewpointWater temp
2020-Aug-02 13:30N 37°48' E 025°33'713.7
2020-Aug-02 13:00N 37°41' E 025°35'713.6
2020-Aug-02 12:30N 37°35' E 025°37'2010.0
2020-Aug-02 10:30N 37°19' E 025°21'713.9
2020-Aug-02 10:00N 37°17' E 025°13'  
2020-Jul-31 00:20N 37°54' E 011°43'5113.2
2020-Jul-30 20:30N 38°04' E 010°40'1413.8
2020-Jul-30 19:30N 38°05' E 010°22'30013.3
2020-Jul-29 21:00N 37°59' E 004°01'812.9
2020-Jul-29 20:25N 37°59' E 003°52'4412.8
2020-Jul-29 17:00N 37°57' E 002°57'713.1
2020-Jul-29 16:30N 37°57' E 002°48'1312.9
2020-Jul-29 15:28N 37°53' E 002°32'21813.5
2020-Jul-28 23:21N 36°25' W 001°38'5213.5
2020-Jul-28 19:30N 36°13' W 002°41'3112.6
2020-Jul-28 17:00N 36°10' W 003°20'2511.8
2020-Jul-28 14:55N 36°08' W 003°50'2312.3
2020-Jul-28 13:00N 36°05' W 004°19'1912.6
2020-Jul-28 11:30N 36°03' W 004°42'611.5
2020-Jul-28 11:00N 36°02' W 004°49'612.3
2020-Jul-28 10:31N 36°02' W 004°57'1312.6
2020-Jul-28 09:30N 36°00' W 005°12'5312.7
2020-Jul-28 05:18N 35°52' W 006°17'5514.6
2020-Jul-28 01:31N 35°28' W 007°19'3714.4
2020-Jul-27 22:58N 35°13' W 007°60'5714.3
2020-Jul-27 19:01N 34°49' W 009°02'2313.8
2020-Jul-27 17:19N 34°40' W 009°28'413.3
2020-Jul-27 16:59N 34°38' W 009°33'713.9
2020-Jul-27 16:30N 34°35' W 009°41'713.8
2020-Jul-27 16:00N 34°32' W 009°48'1013.7
2020-Jul-27 15:15N 34°28' W 009°59'4413.7
2020-Jul-27 12:00N 34°09' W 010°48'9414.3
2020-Jul-27 05:26N 33°30' W 012°31'1314.3
2020-Jul-27 04:30N 33°24' W 012°46'14813.8
2020-Jul-26 17:45N 32°22' W 015°26'3013.9
2020-Jul-26 15:33N 32°09' W 015°59'113.9
2020-Jul-26 15:31N 32°09' W 015°60'  

Dump ship's entire track history